Norway, Kansas
Current Conditions -  °F | °C
As of 6:55 PM on Saturday 22 Nov 2014 (Local Time) from KCNK Reporting Station
Overcast Overcast  
Wind Chill: 57°   Ceiling: 1400
Heat Index: 57°   Visibility: 10mi
Dew Point: 54°   Wind: 18mph
Humidity: 89%   Direction: 180°S
Pressure: 29.6"   Gusts: 28mph
Location:  39.7°N, 97.77°W
Report Text: KCNK 230055Z AUTO 18016G24KT 10SM SCT009 OVC014 14/12 A2960 RMK AO2 PK WND 18029/0014 SLP025 T01390122
Loading
Personal Weather Stations






























Interactive Weather Map New forecast layout! Learn more

10-Day Weather Forecast

Advertisements
Track Severe Weather on mobile